Wetterdaten: Woche 22.12.14 - 28.12.14 (KW52)
Datum Zeit Temperatur Luftfeuchte Luftdruck Niederschlag Windrichtung Sonnenschein Solar Wind
22.12.2014 00:00 0,5 C 93 % 1030,4 hPa 0,0 l/m W-SW 0,00 h 0 W/m 5,1 km/h (1 Bft)
22.12.2014 01:00 0,2 C 94 % 1030,0 hPa 0,0 l/m W-SW 0,00 h 0 W/m 4,8 km/h (1 Bft)
22.12.2014 02:00 0,3 C 95 % 1030,3 hPa 0,0 l/m W-SW 0,00 h 0 W/m 2,1 km/h (1 Bft)
22.12.2014 03:00 0,0 C 95 % 1030,2 hPa 0,0 l/m W-SW 0,00 h 0 W/m 5,1 km/h (1 Bft)
22.12.2014 04:00 0,5 C 95 % 1029,5 hPa 0,0 l/m SW 0,00 h 0 W/m 12,1 km/h (2 Bft)
22.12.2014 05:00 0,7 C 95 % 1029,6 hPa 0,0 l/m SW 0,00 h 0 W/m 7,1 km/h (2 Bft)
22.12.2014 06:00 0,6 C 95 % 1029,4 hPa 0,0 l/m SW 0,00 h 0 W/m 11,1 km/h (2 Bft)
22.12.2014 07:00 0,7 C 95 % 1029,2 hPa 0,0 l/m SW 0,00 h 0 W/m 6,8 km/h (2 Bft)
22.12.2014 08:00 0,6 C 95 % 1029,3 hPa 0,0 l/m SW 0,00 h 8 W/m 8,2 km/h (2 Bft)
22.12.2014 09:00 0,8 C 96 % 1029,7 hPa 0,0 l/m SW 0,00 h 53 W/m 8,2 km/h (2 Bft)
22.12.2014 10:00 1,7 C 95 % 1029,6 hPa 0,0 l/m SW 0,08 h 100 W/m 11,9 km/h (2 Bft)
22.12.2014 11:00 3,2 C 90 % 1029,3 hPa 0,0 l/m SW 0,75 h 187 W/m 15,6 km/h (3 Bft)
22.12.2014 12:00 4,1 C 86 % 1028,7 hPa 0,0 l/m SW 0,67 h 208 W/m 17,8 km/h (3 Bft)
22.12.2014 13:00 5,4 C 82 % 1028,0 hPa 0,0 l/m S-SW 0,92 h 206 W/m 13,6 km/h (3 Bft)
22.12.2014 14:00 6,2 C 77 % 1027,7 hPa 0,0 l/m S-SO 0,17 h 97 W/m 12,0 km/h (2 Bft)
22.12.2014 15:00 6,1 C 78 % 1027,6 hPa 0,0 l/m SW 0,00 h 36 W/m 12,2 km/h (2 Bft)
22.12.2014 16:00 5,7 C 78 % 1026,9 hPa 0,0 l/m W-SW 0,00 h 9 W/m 20,8 km/h (4 Bft)
22.12.2014 17:00 5,1 C 80 % 1026,7 hPa 0,0 l/m SW 0,00 h 0 W/m 24,0 km/h (4 Bft)
22.12.2014 18:00 4,4 C 82 % 1026,7 hPa 0,0 l/m SW 0,00 h 0 W/m 16,4 km/h (3 Bft)
22.12.2014 19:00 3,7 C 84 % 1027,2 hPa 0,0 l/m SW 0,00 h 0 W/m 6,8 km/h (2 Bft)
22.12.2014 20:00 3,3 C 84 % 1027,4 hPa 0,0 l/m S 0,00 h 0 W/m 8,5 km/h (2 Bft)
22.12.2014 21:00 3,6 C 83 % 1027,0 hPa 0,0 l/m SW 0,00 h 0 W/m 14,2 km/h (3 Bft)
22.12.2014 22:00 3,4 C 82 % 1027,0 hPa 0,0 l/m S-SW 0,00 h 0 W/m 4,0 km/h (1 Bft)
22.12.2014 23:00 3,6 C 82 % 1026,9 hPa 0,0 l/m SW 0,00 h 0 W/m 9,8 km/h (2 Bft)
23.12.2014 00:00 4,5 C 73 % 1026,3 hPa 0,0 l/m SW 0,00 h 0 W/m 18,8 km/h (3 Bft)
23.12.2014 01:00 6,2 C 61 % 1026,0 hPa 0,0 l/m SW 0,00 h 0 W/m 28,2 km/h (4 Bft)
23.12.2014 02:00 3,4 C 77 % 1025,9 hPa 0,0 l/m SW 0,00 h 0 W/m 16,1 km/h (3 Bft)
23.12.2014 03:00 3,4 C 75 % 1025,9 hPa 0,0 l/m SW 0,00 h 0 W/m 22,1 km/h (4 Bft)
23.12.2014 04:00 5,1 C 64 % 1025,9 hPa 0,0 l/m SW 0,00 h 0 W/m 20,8 km/h (4 Bft)
23.12.2014 05:00 5,4 C 60 % 1025,7 hPa 0,0 l/m W-SW 0,00 h 0 W/m 18,0 km/h (3 Bft)
23.12.2014 06:00 5,7 C 58 % 1026,0 hPa 0,0 l/m SW 0,00 h 0 W/m 16,1 km/h (3 Bft)
23.12.2014 07:00 4,7 C 63 % 1025,8 hPa 0,0 l/m SW 0,00 h 0 W/m 17,3 km/h (3 Bft)
23.12.2014 08:00 3,5 C 69 % 1025,8 hPa 0,0 l/m SW 0,00 h 9 W/m 14,5 km/h (3 Bft)
23.12.2014 09:00 3,0 C 75 % 1025,9 hPa 0,0 l/m SW 0,08 h 49 W/m 7,2 km/h (2 Bft)
23.12.2014 10:00 3,7 C 80 % 1026,1 hPa 0,0 l/m S 0,42 h 128 W/m 9,4 km/h (2 Bft)
23.12.2014 11:00 6,5 C 75 % 1025,5 hPa 0,0 l/m S-SW 1,00 h 293 W/m 15,2 km/h (3 Bft)
23.12.2014 12:00 9,2 C 67 % 1024,7 hPa 0,0 l/m S-SW 1,00 h 328 W/m 15,7 km/h (3 Bft)
23.12.2014 13:00 11,2 C 45 % 1023,8 hPa 0,0 l/m W-SW 1,00 h 294 W/m 23,2 km/h (4 Bft)
23.12.2014 14:00 11,1 C 48 % 1023,3 hPa 0,0 l/m SW 1,00 h 209 W/m 16,6 km/h (3 Bft)
23.12.2014 15:00 8,7 C 62 % 1023,2 hPa 0,0 l/m SW 0,75 h 83 W/m 12,8 km/h (3 Bft)
23.12.2014 16:00 6,9 C 66 % 1023,1 hPa 0,0 l/m S-SW 0,00 h 9 W/m 8,7 km/h (2 Bft)
23.12.2014 17:00 6,1 C 63 % 1023,0 hPa 0,0 l/m SW 0,00 h 0 W/m 15,6 km/h (3 Bft)
23.12.2014 18:00 6,6 C 57 % 1022,9 hPa 0,0 l/m SW 0,00 h 0 W/m 15,6 km/h (3 Bft)
23.12.2014 19:00 7,0 C 53 % 1022,6 hPa 0,0 l/m SW 0,00 h 0 W/m 18,2 km/h (3 Bft)
23.12.2014 20:00 7,1 C 53 % 1022,5 hPa 0,0 l/m SW 0,00 h 0 W/m 15,8 km/h (3 Bft)
23.12.2014 21:00 6,7 C 54 % 1022,4 hPa 0,0 l/m SW 0,00 h 0 W/m 12,6 km/h (3 Bft)
23.12.2014 22:00 5,0 C 62 % 1022,3 hPa 0,0 l/m N 0,00 h 0 W/m 1,5 km/h (1 Bft)
23.12.2014 23:00 3,2 C 69 % 1022,2 hPa 0,0 l/m W-SW 0,00 h 0 W/m 8,4 km/h (2 Bft)
24.12.2014 00:00 4,8 C 63 % 1021,9 hPa 0,0 l/m SW 0,00 h 0 W/m 19,4 km/h (3 Bft)
24.12.2014 01:00 5,4 C 58 % 1021,8 hPa 0,0 l/m SW 0,00 h 0 W/m 18,5 km/h (3 Bft)
24.12.2014 02:00 3,6 C 67 % 1021,9 hPa 0,0 l/m SW 0,00 h 0 W/m 18,6 km/h (3 Bft)
24.12.2014 03:00 5,7 C 55 % 1021,6 hPa 0,0 l/m W-SW 0,00 h 0 W/m 21,4 km/h (4 Bft)
24.12.2014 04:00 6,4 C 53 % 1021,3 hPa 0,0 l/m W-SW 0,00 h 0 W/m 32,3 km/h (5 Bft)
24.12.2014 05:00 5,8 C 58 % 1021,5 hPa 0,0 l/m SW 0,00 h 0 W/m 26,9 km/h (4 Bft)
24.12.2014 06:00 5,3 C 62 % 1022,1 hPa 0,0 l/m W-SW 0,00 h 0 W/m 21,3 km/h (4 Bft)
24.12.2014 07:00 4,8 C 66 % 1022,6 hPa 0,0 l/m W-SW 0,00 h 0 W/m 13,6 km/h (3 Bft)
24.12.2014 08:00 4,1 C 70 % 1023,4 hPa 0,0 l/m W-SW 0,00 h 8 W/m 4,2 km/h (1 Bft)
24.12.2014 09:00 2,5 C 76 % 1024,2 hPa 0,0 l/m N 0,00 h 24 W/m 1,1 km/h (0 Bft)
24.12.2014 10:00 1,9 C 85 % 1024,9 hPa 0,0 l/m W-SW 0,17 h 79 W/m 5,6 km/h (1 Bft)
24.12.2014 11:00 3,4 C 87 % 1024,3 hPa 0,0 l/m SW 0,75 h 225 W/m 18,2 km/h (3 Bft)
24.12.2014 12:00 5,3 C 81 % 1023,9 hPa 0,0 l/m SW 1,00 h 297 W/m 20,9 km/h (4 Bft)
24.12.2014 13:00 5,3 C 80 % 1023,3 hPa 0,0 l/m SW 0,42 h 151 W/m 21,3 km/h (4 Bft)
24.12.2014 14:00 5,5 C 80 % 1023,0 hPa 0,0 l/m W-SW 0,50 h 146 W/m 29,4 km/h (5 Bft)
24.12.2014 15:00 5,9 C 79 % 1022,7 hPa 0,0 l/m SW 1,00 h 94 W/m 23,7 km/h (4 Bft)
24.12.2014 16:00 5,5 C 80 % 1022,7 hPa 0,0 l/m SW 0,00 h 13 W/m 19,6 km/h (3 Bft)
24.12.2014 17:00 5,0 C 83 % 1022,8 hPa 0,0 l/m SW 0,00 h 0 W/m 18,0 km/h (3 Bft)
24.12.2014 18:00 4,5 C 83 % 1022,6 hPa 0,0 l/m SW 0,00 h 0 W/m 14,9 km/h (3 Bft)
24.12.2014 19:00 3,3 C 87 % 1023,0 hPa 0,0 l/m SW 0,00 h 0 W/m 12,5 km/h (3 Bft)
24.12.2014 20:00 2,3 C 90 % 1023,1 hPa 0,0 l/m SW 0,00 h 0 W/m 15,4 km/h (3 Bft)
24.12.2014 21:00 2,1 C 91 % 1023,1 hPa 0,0 l/m SW 0,00 h 0 W/m 17,0 km/h (3 Bft)
24.12.2014 22:00 2,4 C 91 % 1023,1 hPa 0,0 l/m SW 0,00 h 0 W/m 15,4 km/h (3 Bft)
24.12.2014 23:00 5,2 C 84 % 1022,7 hPa 0,0 l/m W-SW 0,00 h 0 W/m 25,9 km/h (4 Bft)
25.12.2014 00:00 5,9 C 80 % 1022,6 hPa 0,0 l/m W 0,00 h 0 W/m 24,7 km/h (4 Bft)
25.12.2014 01:00 6,3 C 80 % 1022,7 hPa 0,0 l/m W-SW 0,00 h 0 W/m 23,9 km/h (4 Bft)
25.12.2014 02:00 6,5 C 81 % 1022,6 hPa 0,0 l/m W-SW 0,00 h 0 W/m 24,7 km/h (4 Bft)
25.12.2014 03:00 6,4 C 85 % 1022,8 hPa 0,0 l/m W-SW 0,00 h 0 W/m 25,9 km/h (4 Bft)
25.12.2014 04:00 5,9 C 88 % 1022,8 hPa 0,0 l/m W-SW 0,00 h 0 W/m 28,0 km/h (4 Bft)
25.12.2014 05:00 5,5 C 91 % 1022,9 hPa 0,0 l/m W-SW 0,00 h 0 W/m 22,8 km/h (4 Bft)
25.12.2014 06:00 5,2 C 94 % 1023,0 hPa 0,0 l/m W-SW 0,00 h 0 W/m 20,6 km/h (4 Bft)
25.12.2014 07:00 5,4 C 94 % 1023,4 hPa 0,2 l/m W-SW 0,00 h 0 W/m 16,4 km/h (3 Bft)
25.12.2014 08:00 5,3 C 95 % 1023,9 hPa 0,0 l/m W-SW 0,00 h 14 W/m 10,6 km/h (2 Bft)
25.12.2014 09:00 5,3 C 95 % 1024,2 hPa 0,4 l/m NW 0,00 h 26 W/m 8,3 km/h (2 Bft)
25.12.2014 10:00 5,1 C 95 % 1024,6 hPa 0,0 l/m N-NW 0,00 h 38 W/m 5,2 km/h (1 Bft)
25.12.2014 11:00 4,7 C 95 % 1025,0 hPa 0,0 l/m N 0,00 h 28 W/m 8,8 km/h (2 Bft)
25.12.2014 12:00 4,0 C 92 % 1024,9 hPa 0,0 l/m NW 0,00 h 49 W/m 15,0 km/h (3 Bft)
25.12.2014 13:00 3,8 C 87 % 1024,8 hPa 0,0 l/m W-NW 0,00 h 53 W/m 14,9 km/h (3 Bft)
25.12.2014 14:00 3,6 C 83 % 1024,9 hPa 0,0 l/m NW 0,00 h 48 W/m 13,2 km/h (3 Bft)
25.12.2014 15:00 3,2 C 81 % 1025,0 hPa 0,0 l/m W 0,00 h 16 W/m 11,8 km/h (2 Bft)
25.12.2014 16:00 2,8 C 81 % 1025,5 hPa 0,0 l/m W-NW 0,00 h 7 W/m 7,6 km/h (2 Bft)
25.12.2014 17:00 2,6 C 82 % 1026,0 hPa 0,0 l/m W-NW 0,00 h 0 W/m 6,4 km/h (2 Bft)
25.12.2014 18:00 2,2 C 84 % 1026,5 hPa 0,0 l/m W-SW 0,00 h 0 W/m 10,3 km/h (2 Bft)
25.12.2014 19:00 2,1 C 85 % 1027,1 hPa 0,0 l/m W 0,00 h 0 W/m 9,4 km/h (2 Bft)
25.12.2014 20:00 2,1 C 84 % 1027,2 hPa 0,0 l/m W-SW 0,00 h 0 W/m 11,8 km/h (2 Bft)
25.12.2014 21:00 2,2 C 83 % 1027,5 hPa 0,0 l/m W 0,00 h 0 W/m 9,9 km/h (2 Bft)
25.12.2014 22:00 1,9 C 87 % 1027,6 hPa 0,0 l/m W-NW 0,00 h 0 W/m 6,3 km/h (2 Bft)
25.12.2014 23:00 1,6 C 87 % 1027,5 hPa 0,0 l/m W-SW 0,00 h 0 W/m 11,6 km/h (2 Bft)
26.12.2014 00:00 1,2 C 88 % 1027,1 hPa 0,0 l/m W-SW 0,00 h 0 W/m 12,2 km/h (2 Bft)
26.12.2014 01:00 1,0 C 89 % 1027,3 hPa 0,0 l/m SW 0,00 h 0 W/m 10,5 km/h (2 Bft)
26.12.2014 02:00 1,0 C 91 % 1027,7 hPa 0,0 l/m W-SW 0,00 h 0 W/m 9,5 km/h (2 Bft)
26.12.2014 03:00 1,1 C 90 % 1027,6 hPa 0,0 l/m W 0,00 h 0 W/m 10,6 km/h (2 Bft)
26.12.2014 04:00 1,1 C 89 % 1027,3 hPa 0,0 l/m W 0,00 h 0 W/m 13,8 km/h (3 Bft)
26.12.2014 05:00 1,1 C 89 % 1027,3 hPa 0,0 l/m W 0,00 h 0 W/m 13,2 km/h (3 Bft)
26.12.2014 06:00 1,1 C 89 % 1027,4 hPa 0,0 l/m W 0,00 h 0 W/m 14,6 km/h (3 Bft)
26.12.2014 07:00 0,8 C 92 % 1027,8 hPa 0,6 l/m W 0,00 h 0 W/m 4,4 km/h (1 Bft)
26.12.2014 08:00 0,3 C 94 % 1028,5 hPa 2,0 l/m N 0,00 h 5 W/m 0,0 km/h (0 Bft)
26.12.2014 09:00 0,2 C 94 % 1028,9 hPa 2,0 l/m N 0,00 h 10 W/m 0,0 km/h (0 Bft)
26.12.2014 10:00 0,3 C 95 % 1029,1 hPa 0,6 l/m N 0,00 h 45 W/m 0,0 km/h (0 Bft)
26.12.2014 11:00 1,0 C 96 % 1028,8 hPa 0,0 l/m N 0,42 h 181 W/m 0,8 km/h (0 Bft)
26.12.2014 12:00 0,8 C 94 % 1028,5 hPa 0,0 l/m NW 0,00 h 85 W/m 2,3 km/h (1 Bft)
26.12.2014 13:00 1,2 C 92 % 1028,0 hPa 0,0 l/m NW 0,42 h 191 W/m 1,7 km/h (1 Bft)
26.12.2014 14:00 1,0 C 90 % 1027,6 hPa 0,0 l/m W 0,33 h 115 W/m 1,6 km/h (1 Bft)
26.12.2014 15:00 0,5 C 93 % 1027,8 hPa 0,0 l/m W-SW 0,00 h 21 W/m 5,7 km/h (1 Bft)
26.12.2014 16:00 0,2 C 93 % 1027,7 hPa 0,0 l/m W-SW 0,00 h 6 W/m 4,6 km/h (1 Bft)
26.12.2014 17:00 0,1 C 94 % 1027,5 hPa 0,4 l/m SW 0,00 h 0 W/m 7,1 km/h (2 Bft)
26.12.2014 18:00 -0,2 C 95 % 1027,0 hPa 0,6 l/m N 0,00 h 0 W/m 2,1 km/h (1 Bft)
26.12.2014 19:00 -0,7 C 95 % 1026,7 hPa 0,0 l/m SW 0,00 h 0 W/m 3,6 km/h (1 Bft)
26.12.2014 20:00 -0,6 C 96 % 1026,1 hPa 0,0 l/m SW 0,00 h 0 W/m 6,5 km/h (2 Bft)
26.12.2014 21:00 -0,4 C 96 % 1025,5 hPa 0,0 l/m SW 0,00 h 0 W/m 4,9 km/h (1 Bft)
26.12.2014 22:00 -0,5 C 96 % 1024,5 hPa 0,0 l/m SW 0,00 h 0 W/m 3,6 km/h (1 Bft)
26.12.2014 23:00 -0,5 C 97 % 1023,2 hPa 0,0 l/m SW 0,00 h 0 W/m 6,6 km/h (2 Bft)
27.12.2014 00:00 -0,6 C 97 % 1021,6 hPa 0,0 l/m SW 0,00 h 0 W/m 8,8 km/h (2 Bft)
27.12.2014 01:00 -1,1 C 97 % 1020,1 hPa 0,0 l/m SW 0,00 h 0 W/m 3,9 km/h (1 Bft)
27.12.2014 02:00 -1,8 C 97 % 1019,0 hPa 0,0 l/m N 0,00 h 0 W/m 0,0 km/h (0 Bft)
27.12.2014 03:00 -1,6 C 97 % 1017,2 hPa 0,0 l/m SW 0,00 h 0 W/m 2,7 km/h (1 Bft)
27.12.2014 04:00 -1,6 C 97 % 1014,5 hPa 0,0 l/m N 0,00 h 0 W/m 2,3 km/h (1 Bft)
27.12.2014 05:00 -2,1 C 97 % 1011,9 hPa 0,0 l/m N 0,00 h 0 W/m 0,1 km/h (0 Bft)
27.12.2014 06:00 -2,3 C 97 % 1009,8 hPa 0,0 l/m N 0,00 h 0 W/m 0,1 km/h (0 Bft)
27.12.2014 07:00 -2,2 C 97 % 1007,9 hPa 0,0 l/m N 0,00 h 0 W/m 2,3 km/h (1 Bft)
27.12.2014 08:00 -2,1 C 97 % 1006,2 hPa 1,2 l/m SW 0,00 h 5 W/m 4,1 km/h (1 Bft)
27.12.2014 09:00 -1,8 C 97 % 1004,3 hPa 1,6 l/m SW 0,00 h 8 W/m 6,4 km/h (2 Bft)
27.12.2014 10:00 -1,1 C 98 % 1002,5 hPa 1,4 l/m SW 0,00 h 11 W/m 16,5 km/h (3 Bft)
27.12.2014 11:00 -0,1 C 98 % 1001,0 hPa 1,4 l/m SW 0,00 h 15 W/m 27,5 km/h (4 Bft)
27.12.2014 12:00 0,2 C 98 % 1000,1 hPa 1,4 l/m SW 0,00 h 20 W/m 20,2 km/h (4 Bft)
27.12.2014 13:00 0,3 C 98 % 999,2 hPa 0,6 l/m SW 0,00 h 23 W/m 20,6 km/h (4 Bft)
27.12.2014 14:00 0,6 C 98 % 998,9 hPa 0,4 l/m SW 0,00 h 35 W/m 22,4 km/h (4 Bft)
27.12.2014 15:00 0,8 C 98 % 998,6 hPa 0,4 l/m W-SW 0,00 h 31 W/m 23,7 km/h (4 Bft)
27.12.2014 16:00 0,7 C 98 % 998,1 hPa 0,0 l/m W-SW 0,00 h 8 W/m 28,7 km/h (4 Bft)
27.12.2014 17:00 0,8 C 97 % 997,8 hPa 0,2 l/m W-SW 0,00 h 0 W/m 29,1 km/h (5 Bft)
27.12.2014 18:00 0,8 C 95 % 997,7 hPa 0,0 l/m W-SW 0,00 h 0 W/m 29,3 km/h (5 Bft)
27.12.2014 19:00 0,7 C 96 % 997,8 hPa 0,0 l/m W-SW 0,00 h 0 W/m 26,0 km/h (4 Bft)
27.12.2014 20:00 0,6 C 96 % 997,9 hPa 0,0 l/m W-SW 0,00 h 0 W/m 23,3 km/h (4 Bft)
27.12.2014 21:00 0,5 C 96 % 998,2 hPa 0,0 l/m W-SW 0,00 h 0 W/m 20,5 km/h (4 Bft)
27.12.2014 22:00 0,4 C 96 % 998,5 hPa 0,0 l/m SW 0,00 h 0 W/m 23,1 km/h (4 Bft)
27.12.2014 23:00 0,3 C 96 % 998,8 hPa 0,0 l/m W-SW 0,00 h 0 W/m 19,7 km/h (3 Bft)
28.12.2014 00:00 0,2 C 97 % 998,8 hPa 0,4 l/m W-SW 0,00 h 0 W/m 12,9 km/h (3 Bft)
28.12.2014 01:00 -0,0 C 97 % 998,8 hPa 0,4 l/m SW 0,00 h 0 W/m 12,5 km/h (3 Bft)
28.12.2014 02:00 -0,2 C 97 % 999,5 hPa 0,0 l/m W-SW 0,00 h 0 W/m 14,0 km/h (3 Bft)
28.12.2014 03:00 -0,3 C 97 % 1000,2 hPa 0,0 l/m W-SW 0,00 h 0 W/m 5,1 km/h (1 Bft)
28.12.2014 04:00 -0,7 C 97 % 1001,1 hPa 0,0 l/m W-SW 0,00 h 0 W/m 2,8 km/h (1 Bft)
28.12.2014 05:00 -0,8 C 97 % 1001,9 hPa 0,4 l/m N 0,00 h 0 W/m 1,1 km/h (0 Bft)
28.12.2014 06:00 -0,9 C 97 % 1002,9 hPa 0,2 l/m W-NW 0,00 h 0 W/m 2,9 km/h (1 Bft)
28.12.2014 07:00 -1,4 C 97 % 1004,4 hPa 0,2 l/m N-NO 0,00 h 0 W/m 15,3 km/h (3 Bft)
28.12.2014 08:00 -2,6 C 96 % 1006,2 hPa 0,0 l/m N-NO 0,00 h 5 W/m 19,6 km/h (3 Bft)
28.12.2014 09:00 -3,5 C 96 % 1008,3 hPa 0,2 l/m N-NO 0,00 h 13 W/m 20,4 km/h (4 Bft)
28.12.2014 10:00 -4,0 C 96 % 1010,4 hPa 0,2 l/m N-NO 0,00 h 12 W/m 20,1 km/h (4 Bft)
28.12.2014 11:00 -4,0 C 96 % 1011,9 hPa 0,6 l/m N-NO 0,00 h 24 W/m 22,5 km/h (4 Bft)
28.12.2014 12:00 -3,8 C 95 % 1013,1 hPa 0,0 l/m N-NO 0,00 h 24 W/m 19,8 km/h (4 Bft)
28.12.2014 13:00 -3,8 C 95 % 1014,5 hPa 0,4 l/m NO 0,00 h 22 W/m 20,2 km/h (4 Bft)
28.12.2014 14:00 -3,9 C 95 % 1016,0 hPa 0,2 l/m NO 0,00 h 23 W/m 24,4 km/h (4 Bft)
28.12.2014 15:00 -4,2 C 95 % 1018,1 hPa 0,0 l/m NO 0,00 h 12 W/m 26,7 km/h (4 Bft)
28.12.2014 16:00 -4,7 C 94 % 1020,3 hPa 0,4 l/m NO 0,00 h 5 W/m 22,0 km/h (4 Bft)
28.12.2014 17:00 -5,4 C 92 % 1022,2 hPa 0,0 l/m NO 0,00 h 0 W/m 23,1 km/h (4 Bft)
28.12.2014 18:00 -6,5 C 90 % 1024,1 hPa 0,0 l/m NO 0,00 h 0 W/m 15,1 km/h (3 Bft)
28.12.2014 19:00 -7,8 C 90 % 1025,7 hPa 0,0 l/m N-NO 0,00 h 0 W/m 5,3 km/h (1 Bft)
28.12.2014 20:00 -9,1 C 90 % 1027,5 hPa 0,0 l/m N 0,00 h 0 W/m 2,5 km/h (1 Bft)
28.12.2014 21:00 -10,3 C 90 % 1028,5 hPa 0,0 l/m N-NO 0,00 h 0 W/m 2,9 km/h (1 Bft)
28.12.2014 22:00 -11,1 C 90 % 1029,5 hPa 0,0 l/m N-NO 0,00 h 0 W/m 2,5 km/h (1 Bft)
28.12.2014 23:00 -11,9 C 90 % 1030,6 hPa 0,0 l/m N 0,00 h 0 W/m 0,0 km/h (0 Bft)
Min-Datum _ 28.12.14 23.12.14 27.12.14 - - - - 22.12.14
_ Min-Zeit 23:50 13:50 18:15 - - - - 00:00
Minimum _ -12,2 C 40 % 997,6 hPa - - - - 0,0 km/h (0 Bft)
Max-Datum _ 23.12.14 27.12.14 28.12.14 26.12.14 - 22.12.14 26.12.14 24.12.14
_ Max-Zeit 13:50 10:15 23:55 08:05 - 10:55 13:15 04:20
Maximum _ 11,6 C 98 % 1031,1 hPa 2,0 l/m - 0,08 h 378 W/m 38,6 km/h
W-SW (5 Bft)
Durchschnitt _ 1,9 C 85 % 1020,8 hPa #19,0 l/m SW #12:50 h 73 W/m 13,2 km/h (3 Bft)